createdAt,value
2023-06-30T00:03:26.736Z,20.91
2023-06-30T00:08:29.782Z,19.07
2023-06-30T00:13:32.564Z,17.57
2023-06-30T00:18:35.354Z,18.02
2023-06-30T00:23:38.093Z,20.57
2023-06-30T00:28:40.823Z,19.60
2023-06-30T00:33:43.592Z,17.84
2023-06-30T00:38:46.381Z,18.40
2023-06-30T00:43:49.164Z,20.88
2023-06-30T00:48:52.095Z,20.09
2023-06-30T00:53:54.913Z,18.23
2023-06-30T00:58:59.358Z,18.40
2023-06-30T01:04:30.301Z,20.73
2023-06-30T01:09:39.211Z,19.76
2023-06-30T01:14:43.604Z,17.88
2023-06-30T01:19:49.376Z,19.27
2023-06-30T01:24:57.840Z,20.61
2023-06-30T01:30:00.772Z,18.98
2023-06-30T01:35:03.678Z,17.44
2023-06-30T01:40:07.309Z,18.60
2023-06-30T01:45:11.216Z,20.73
2023-06-30T01:50:16.181Z,19.44
2023-06-30T01:55:18.956Z,17.64
2023-06-30T02:00:21.841Z,18.35
2023-06-30T02:05:24.667Z,20.55
2023-06-30T02:10:27.603Z,19.27
2023-06-30T02:15:30.389Z,17.48
2023-06-30T02:20:33.895Z,18.30
2023-06-30T02:25:36.693Z,20.52
2023-06-30T02:30:39.462Z,19.45
2023-06-30T02:35:43.415Z,17.69
2023-06-30T02:40:47.384Z,18.72
2023-06-30T02:45:50.220Z,20.28
2023-06-30T02:50:53.056Z,18.44
2023-06-30T02:55:55.780Z,17.42
2023-06-30T03:00:58.799Z,19.78
2023-06-30T03:06:01.572Z,19.97
2023-06-30T03:11:04.312Z,18.02
2023-06-30T03:16:08.361Z,18.40
2023-06-30T03:21:11.347Z,20.74
2023-06-30T03:26:15.285Z,19.64
2023-06-30T03:31:18.447Z,18.31
2023-06-30T03:36:21.357Z,18.97
2023-06-30T03:41:24.114Z,21.27
2023-06-30T03:46:26.842Z,20.02
2023-06-30T03:51:29.649Z,18.87
2023-06-30T03:56:32.513Z,18.10
2023-06-30T04:01:35.584Z,19.17
2023-06-30T04:06:38.393Z,21.67
2023-06-30T04:11:41.186Z,20.68
2023-06-30T04:16:43.887Z,19.15
2023-06-30T04:21:48.125Z,18.30
2023-06-30T04:26:50.975Z,19.11
2023-06-30T04:31:53.674Z,21.92
2023-06-30T04:36:56.439Z,20.93
2023-06-30T04:42:00.251Z,19.79
2023-06-30T04:47:03.069Z,19.36
2023-06-30T04:52:06.249Z,20.50
2023-06-30T04:57:09.100Z,22.40
2023-06-30T05:02:11.844Z,21.32
2023-06-30T05:07:14.622Z,20.69
2023-06-30T05:12:17.460Z,20.42
2023-06-30T05:17:20.415Z,20.34
2023-06-30T05:22:23.335Z,21.75
2023-06-30T05:27:26.128Z,23.93
2023-06-30T05:32:28.941Z,23.17
2023-06-30T05:37:31.775Z,22.71
2023-06-30T05:42:34.527Z,22.49
2023-06-30T05:47:37.755Z,22.32
2023-06-30T05:52:40.630Z,22.29
2023-06-30T05:57:43.431Z,22.28
2023-06-30T06:02:46.262Z,22.21
2023-06-30T06:07:49.878Z,23.52
2023-06-30T06:12:55.477Z,25.48
2023-06-30T06:17:58.271Z,24.54
2023-06-30T06:23:01.074Z,24.07
2023-06-30T06:28:03.857Z,23.95
2023-06-30T06:33:06.652Z,23.90
2023-06-30T06:38:09.539Z,23.98
2023-06-30T06:43:12.683Z,24.23
2023-06-30T06:48:26.198Z,24.49
2023-06-30T06:53:34.532Z,24.61
2023-06-30T06:58:37.374Z,24.61
2023-06-30T07:03:40.537Z,24.58
2023-06-30T07:08:43.479Z,24.67
2023-06-30T07:13:46.253Z,24.94
2023-06-30T07:18:49.058Z,25.05
2023-06-30T07:23:53.694Z,25.10
2023-06-30T07:28:56.460Z,25.13
2023-06-30T07:33:59.279Z,25.22
2023-06-30T07:39:02.205Z,25.19
2023-06-30T07:44:05.400Z,25.10
2023-06-30T07:49:08.273Z,24.90
2023-06-30T07:54:11.172Z,24.70
2023-06-30T07:59:14.123Z,24.89
2023-06-30T08:04:18.482Z,25.14
2023-06-30T08:09:21.519Z,25.23
2023-06-30T08:14:24.280Z,25.34
2023-06-30T08:19:47.674Z,25.55
2023-06-30T08:24:49.985Z,25.68
2023-06-30T08:29:52.817Z,25.79
2023-06-30T08:34:55.557Z,25.94
2023-06-30T08:39:58.371Z,26.16
2023-06-30T08:45:03.931Z,26.52
2023-06-30T08:50:07.923Z,26.76
2023-06-30T08:55:11.689Z,27.00
2023-06-30T09:00:16.059Z,27.21
2023-06-30T09:05:19.184Z,27.38
2023-06-30T09:10:28.654Z,27.56
2023-06-30T09:15:32.991Z,27.60
2023-06-30T09:20:37.628Z,27.60
2023-06-30T09:25:41.358Z,27.61
2023-06-30T09:30:47.101Z,27.62
2023-06-30T09:35:50.742Z,27.64
2023-06-30T09:40:53.621Z,27.59
2023-06-30T09:45:58.544Z,27.49
2023-06-30T09:51:01.476Z,27.36
2023-06-30T09:56:05.065Z,27.31
2023-06-30T10:01:09.397Z,27.60
2023-06-30T10:06:12.432Z,27.64
2023-06-30T10:11:15.769Z,27.30
2023-06-30T10:16:22.067Z,27.02
2023-06-30T10:21:25.152Z,27.10
2023-06-30T10:26:29.323Z,27.28
2023-06-30T10:31:34.060Z,27.38
2023-06-30T10:36:38.313Z,27.32
2023-06-30T10:41:51.225Z,27.24
2023-06-30T10:46:57.332Z,27.27
2023-06-30T10:52:06.513Z,27.19
2023-06-30T10:57:15.733Z,27.21
2023-06-30T11:02:18.587Z,27.51
2023-06-30T11:07:27.205Z,27.90
2023-06-30T11:12:51.157Z,27.94
2023-06-30T11:17:54.017Z,28.16
2023-06-30T11:22:59.017Z,28.21
2023-06-30T11:28:04.372Z,28.21
2023-06-30T11:33:08.369Z,28.07
2023-06-30T11:38:11.187Z,27.65
2023-06-30T11:43:15.008Z,27.36
2023-06-30T11:48:17.810Z,27.02
2023-06-30T11:53:20.817Z,26.89
2023-06-30T11:58:23.660Z,26.81
2023-06-30T12:03:28.365Z,26.73
2023-06-30T12:08:36.506Z,26.69
2023-06-30T12:13:43.212Z,26.79
2023-06-30T12:18:46.587Z,26.97
2023-06-30T12:23:49.565Z,27.00
2023-06-30T12:28:52.414Z,26.83
2023-06-30T12:33:55.426Z,26.84
2023-06-30T12:38:58.254Z,27.05
2023-06-30T12:44:02.430Z,27.28
2023-06-30T12:49:06.694Z,27.60
2023-06-30T12:54:09.511Z,27.58
2023-06-30T12:59:12.357Z,27.29
2023-06-30T13:04:16.035Z,26.98
2023-06-30T13:09:19.560Z,26.72
2023-06-30T13:14:22.361Z,26.51
2023-06-30T13:19:26.272Z,26.42
2023-06-30T13:24:29.007Z,26.32
2023-06-30T13:29:33.184Z,26.23
2023-06-30T13:34:36.061Z,26.07
2023-06-30T13:39:38.931Z,25.92
2023-06-30T13:44:41.899Z,25.93
2023-06-30T13:49:44.677Z,25.95
2023-06-30T13:54:47.425Z,25.89
2023-06-30T13:59:50.213Z,25.96
2023-06-30T14:04:53.020Z,26.42
2023-06-30T14:09:57.348Z,26.80
2023-06-30T14:15:00.144Z,27.28
2023-06-30T14:20:04.518Z,27.81
2023-06-30T14:25:07.715Z,28.34
2023-06-30T14:30:10.936Z,29.05
2023-06-30T14:35:13.998Z,29.57
2023-06-30T14:40:16.939Z,30.13
2023-06-30T14:45:19.726Z,30.55
2023-06-30T14:50:23.946Z,30.55
2023-06-30T14:55:26.710Z,30.48
2023-06-30T15:00:29.509Z,30.42
2023-06-30T15:05:33.258Z,30.20
2023-06-30T15:10:36.026Z,29.76
2023-06-30T15:15:39.025Z,29.29
2023-06-30T15:20:41.829Z,28.90
2023-06-30T15:25:44.853Z,28.72
2023-06-30T15:30:48.321Z,28.88
2023-06-30T15:35:51.372Z,29.19
2023-06-30T15:40:59.620Z,30.05
2023-06-30T15:46:06.289Z,30.72
2023-06-30T15:51:09.069Z,30.72
2023-06-30T15:56:11.886Z,30.36
2023-06-30T16:01:15.015Z,29.76
2023-06-30T16:06:17.800Z,29.10
2023-06-30T16:11:20.623Z,28.26
2023-06-30T16:16:23.547Z,27.48
2023-06-30T16:21:26.580Z,26.67
2023-06-30T16:26:29.342Z,25.93
2023-06-30T16:31:32.082Z,25.37
2023-06-30T16:36:34.885Z,24.72
2023-06-30T16:41:37.664Z,24.23
2023-06-30T16:46:40.509Z,23.70
2023-06-30T16:51:43.983Z,23.46
2023-06-30T16:56:47.263Z,23.67
2023-06-30T17:01:56.273Z,24.25
2023-06-30T17:06:59.743Z,24.46
2023-06-30T17:12:02.744Z,24.88
2023-06-30T17:17:06.002Z,25.02
2023-06-30T17:22:08.945Z,24.68
2023-06-30T17:27:12.141Z,24.75
2023-06-30T17:32:14.964Z,25.25
2023-06-30T17:37:17.754Z,25.47
2023-06-30T17:42:20.636Z,25.70
2023-06-30T17:47:23.443Z,25.86
2023-06-30T17:52:26.273Z,26.06
2023-06-30T17:57:29.090Z,26.23
2023-06-30T18:02:31.921Z,26.35
2023-06-30T18:07:34.977Z,26.43
2023-06-30T18:12:37.782Z,25.58
2023-06-30T18:17:40.714Z,23.94
2023-06-30T18:22:43.607Z,25.27
2023-06-30T18:27:46.401Z,25.82
2023-06-30T18:32:49.205Z,25.96
2023-06-30T18:37:51.979Z,25.77
2023-06-30T18:42:54.755Z,24.62
2023-06-30T18:47:57.618Z,24.07
2023-06-30T18:53:00.663Z,24.45
2023-06-30T18:58:04.196Z,24.73
2023-06-30T19:03:09.847Z,25.01
2023-06-30T19:08:12.771Z,25.25
2023-06-30T19:13:15.901Z,25.45
2023-06-30T19:18:20.913Z,24.42
2023-06-30T19:23:23.749Z,23.99
2023-06-30T19:28:27.057Z,24.57
2023-06-30T19:33:31.446Z,24.87
2023-06-30T19:38:34.553Z,25.16
2023-06-30T19:43:37.464Z,25.04
2023-06-30T19:48:45.239Z,25.16
2023-06-30T19:53:48.035Z,25.48
2023-06-30T19:58:50.861Z,25.72
2023-06-30T20:03:54.146Z,25.85
2023-06-30T20:08:56.930Z,26.01
2023-06-30T20:13:59.758Z,26.05
2023-06-30T20:19:02.577Z,26.00
2023-06-30T20:24:05.585Z,25.98
2023-06-30T20:29:08.562Z,26.05
2023-06-30T20:34:11.776Z,26.15
2023-06-30T20:39:14.504Z,26.32
2023-06-30T20:44:17.297Z,26.33
2023-06-30T20:49:20.939Z,25.10
2023-06-30T20:54:23.806Z,23.62
2023-06-30T20:59:28.021Z,24.54
2023-06-30T21:04:30.877Z,24.38
2023-06-30T21:09:33.764Z,24.52
2023-06-30T21:14:36.559Z,24.61
2023-06-30T21:19:40.950Z,24.70
2023-06-30T21:24:45.145Z,24.69
2023-06-30T21:29:47.889Z,24.61
2023-06-30T21:34:50.729Z,24.46
2023-06-30T21:39:53.517Z,24.37
2023-06-30T21:44:56.322Z,24.48
2023-06-30T21:49:59.223Z,24.28
2023-06-30T21:55:03.772Z,24.04
2023-06-30T22:00:08.807Z,23.74
2023-06-30T22:05:12.434Z,23.79
2023-06-30T22:10:15.367Z,23.87
2023-06-30T22:15:18.219Z,23.77
2023-06-30T22:20:23.047Z,23.70
2023-06-30T22:25:25.894Z,23.66
2023-06-30T22:30:29.485Z,23.72
2023-06-30T22:35:32.246Z,23.69
2023-06-30T22:40:34.933Z,23.70
2023-06-30T22:45:38.075Z,23.71
2023-06-30T22:50:40.929Z,23.76
2023-06-30T22:55:43.636Z,22.98
2023-06-30T23:00:46.728Z,21.92
2023-06-30T23:05:49.684Z,22.73
2023-06-30T23:10:52.335Z,23.21
2023-06-30T23:15:56.332Z,22.97
2023-06-30T23:20:59.062Z,22.85
2023-06-30T23:26:02.946Z,22.65
2023-06-30T23:31:06.430Z,22.51
2023-06-30T23:36:10.988Z,22.60
2023-06-30T23:41:13.855Z,22.53
2023-06-30T23:46:21.359Z,22.74
2023-06-30T23:51:24.234Z,22.98
2023-06-30T23:56:27.074Z,23.18
